Time;durP1;ratioP1;P1;durP2;ratioP2;P2;SDS_P1;SDS_P2;PMS_P1;PMS_P2;Temp;Humidity;BMP_temperature;BMP_pressure;BME280_temperature;BME280_humidity;BME280_pressure;Samples;Min_cycle;Max_cycle;Signal;HPM_P1;HPM_P2
2024/01/10 00:02:22;;;;;;;44.73;17.47;;;-3.20;84.20;;;;;;739425;192;26544;-76
2024/01/10 00:04:48;;;;;;;37.47;15.60;;;-3.20;84.20;;;;;;738911;194;27079;-76
2024/01/10 00:07:15;;;;;;;35.30;15.47;;;-3.30;83.80;;;;;;737811;192;26532;-76
2024/01/10 00:09:42;;;;;;;37.47;15.67;;;-3.20;84.30;;;;;;738864;193;27079;-76
2024/01/10 00:12:08;;;;;;;35.70;15.60;;;-3.30;84.40;;;;;;739493;193;26598;-76
2024/01/10 00:14:35;;;;;;;35.20;14.33;;;-3.20;83.50;;;;;;740054;193;26577;-76
2024/01/10 00:17:01;;;;;;;30.97;14.33;;;-3.20;83.00;;;;;;741820;193;27150;-76
2024/01/10 00:19:28;;;;;;;32.87;15.07;;;-3.20;82.60;;;;;;743953;193;26524;-76
2024/01/10 00:21:55;;;;;;;32.73;14.60;;;-3.10;82.60;;;;;;742023;180;26648;-75
2024/01/10 00:24:21;;;;;;;38.87;15.23;;;-3.20;82.20;;;;;;772066;184;26483;-77
2024/01/10 00:26:48;;;;;;;31.77;14.57;;;-3.20;82.10;;;;;;763331;188;27049;-77
2024/01/10 00:29:14;;;;;;;30.40;14.07;;;-3.20;82.30;;;;;;763420;188;26517;-76
2024/01/10 00:31:41;;;;;;;33.80;13.63;;;-3.20;82.70;;;;;;763469;188;27025;-75
2024/01/10 00:34:08;;;;;;;30.77;14.30;;;-3.20;83.10;;;;;;768063;184;26546;-75
2024/01/10 00:36:34;;;;;;;29.57;13.50;;;-3.20;83.30;;;;;;779955;184;26461;-75
2024/01/10 00:39:01;;;;;;;28.60;13.57;;;-3.30;83.50;;;;;;781326;184;27022;-75
2024/01/10 00:41:28;;;;;;;29.40;13.23;;;-3.30;83.10;;;;;;781432;180;26527;-75
2024/01/10 00:43:55;;;;;;;31.43;12.30;;;-3.30;82.60;;;;;;780566;183;26544;-75
2024/01/10 00:46:21;;;;;;;32.03;14.20;;;-3.30;81.90;;;;;;776727;184;26520;-75
2024/01/10 00:48:48;;;;;;;32.27;13.63;;;-3.30;81.80;;;;;;772107;184;27057;-76
2024/01/10 00:51:14;;;;;;;26.30;12.90;;;-3.30;82.20;;;;;;772930;185;26463;-76
2024/01/10 00:53:42;;;;;;;27.53;13.90;;;-3.30;80.80;;;;;;772431;184;26526;-77
2024/01/10 00:56:08;;;;;;;29.67;13.67;;;-3.30;80.60;;;;;;773329;183;26530;-76
2024/01/10 00:58:34;;;;;;;26.97;12.53;;;-3.30;81.10;;;;;;770602;184;26452;-75
2024/01/10 01:01:01;;;;;;;25.97;12.40;;;-3.40;81.40;;;;;;770992;184;27031;-75
2024/01/10 01:03:27;;;;;;;27.07;12.70;;;-3.40;82.40;;;;;;767320;185;26513;-75
2024/01/10 01:05:54;;;;;;;30.20;13.47;;;-3.40;82.30;;;;;;774543;185;26493;-75
2024/01/10 01:08:21;;;;;;;25.57;12.13;;;-3.40;82.60;;;;;;762750;187;26513;-76
2024/01/10 01:10:47;;;;;;;26.43;12.07;;;-3.40;83.40;;;;;;770852;183;26472;-76
2024/01/10 01:13:14;;;;;;;27.40;12.93;;;-3.40;82.60;;;;;;764617;188;27141;-78
2024/01/10 01:15:40;;;;;;;30.73;12.63;;;-3.40;82.20;;;;;;776909;184;26536;-77
2024/01/10 01:18:09;;;;;;;27.17;11.83;;;-3.40;81.50;;;;;;763094;187;26527;-76
2024/01/10 01:20:33;;;;;;;29.40;12.43;;;-3.40;81.20;;;;;;776392;184;26510;-78
2024/01/10 01:23:00;;;;;;;31.23;12.50;;;-3.40;81.70;;;;;;762467;188;26533;-75
2024/01/10 01:25:27;;;;;;;27.87;12.23;;;-3.30;81.50;;;;;;776926;182;26731;-71
2024/01/10 01:27:53;;;;;;;32.00;12.80;;;-3.30;81.20;;;;;;762190;188;26525;-76
2024/01/10 01:30:21;;;;;;;32.07;13.23;;;-3.30;82.00;;;;;;776357;184;27033;-75
2024/01/10 01:32:47;;;;;;;31.20;13.30;;;-3.30;82.90;;;;;;762141;187;26504;-75
2024/01/10 01:35:13;;;;;;;29.17;13.17;;;-3.30;83.20;;;;;;776408;185;26481;-75
2024/01/10 01:37:40;;;;;;;29.20;13.40;;;-3.40;83.90;;;;;;762163;188;27020;-77
2024/01/10 01:40:07;;;;;;;30.80;12.40;;;-3.40;84.40;;;;;;776729;185;26451;-75
2024/01/10 01:42:34;;;;;;;28.63;12.67;;;-3.40;83.90;;;;;;762341;187;26544;-76
2024/01/10 01:45:00;;;;;;;26.33;11.30;;;-3.40;84.40;;;;;;776528;185;26519;-76
2024/01/10 01:47:27;;;;;;;31.53;13.03;;;-3.40;83.80;;;;;;762088;187;26505;-76
2024/01/10 01:49:54;;;;;;;28.90;11.73;;;-3.40;82.80;;;;;;781920;183;27079;-76
2024/01/10 01:52:20;;;;;;;29.00;12.70;;;-3.40;82.70;;;;;;778407;184;26530;-75
2024/01/10 01:54:47;;;;;;;31.90;12.80;;;-3.50;81.20;;;;;;776505;183;26505;-76
2024/01/10 01:57:13;;;;;;;28.03;12.70;;;-3.40;81.90;;;;;;775967;184;26539;-76
2024/01/10 01:59:40;;;;;;;34.17;13.23;;;-3.40;83.20;;;;;;761619;188;26467;-76
2024/01/10 02:02:07;;;;;;;27.90;12.80;;;-3.50;82.40;;;;;;776061;185;27070;-76
2024/01/10 02:04:33;;;;;;;28.47;12.20;;;-3.50;83.10;;;;;;778452;183;26774;-76
2024/01/10 02:07:00;;;;;;;31.00;13.10;;;-3.50;83.20;;;;;;772248;184;26530;-77
2024/01/10 02:09:26;;;;;;;38.00;15.07;;;-3.50;82.20;;;;;;777113;180;26495;-76
2024/01/10 02:11:53;;;;;;;57.33;20.63;;;-3.40;81.10;;;;;;776138;185;26525;-77
2024/01/10 02:14:20;;;;;;;56.27;19.67;;;-3.40;80.50;;;;;;776384;184;27016;-76
2024/01/10 02:16:46;;;;;;;58.73;20.00;;;-3.40;79.50;;;;;;775677;184;26498;-77
2024/01/10 02:19:26;;;;;;;56.23;20.27;;;-3.30;79.70;;;;;;775702;184;26977;-76
2024/01/10 02:21:51;;;;;;;57.20;18.60;;;-3.30;80.60;;;;;;779724;179;26470;-76
2024/01/10 02:24:17;;;;;;;48.83;19.53;;;-3.30;81.20;;;;;;765342;184;27016;-76
2024/01/10 02:26:44;;;;;;;54.07;20.90;;;-3.30;80.40;;;;;;773719;183;26492;-76
2024/01/10 02:29:11;;;;;;;87.93;27.20;;;-3.40;80.30;;;;;;775377;183;26499;-72
2024/01/10 02:31:37;;;;;;;51.70;20.00;;;-3.40;80.20;;;;;;775170;183;26507;-76
2024/01/10 02:34:04;;;;;;;60.10;21.83;;;-3.40;80.90;;;;;;773886;184;26499;-76
2024/01/10 02:36:30;;;;;;;43.00;17.87;;;-3.40;82.30;;;;;;776838;185;27075;-76
2024/01/10 02:38:57;;;;;;;42.50;17.90;;;-3.40;82.30;;;;;;767330;183;26506;-76
2024/01/10 02:41:24;;;;;;;38.20;16.97;;;-3.40;81.40;;;;;;775618;184;26443;-76
2024/01/10 02:43:50;;;;;;;37.03;15.87;;;-3.40;82.50;;;;;;777732;184;26488;-73
2024/01/10 02:46:18;;;;;;;33.77;13.87;;;-3.50;81.70;;;;;;775753;185;26512;-76
2024/01/10 02:48:43;;;;;;;34.67;14.90;;;-3.50;80.80;;;;;;776370;184;26988;-76
2024/01/10 02:51:10;;;;;;;33.07;15.03;;;-3.50;80.10;;;;;;779116;184;26478;-76
2024/01/10 02:53:37;;;;;;;29.03;13.40;;;-3.50;80.60;;;;;;781786;183;26541;-76
2024/01/10 02:56:03;;;;;;;32.70;14.43;;;-3.50;80.30;;;;;;774854;183;26554;-76
2024/01/10 02:58:30;;;;;;;29.67;13.50;;;-3.50;80.40;;;;;;758905;187;27133;-76
2024/01/10 03:00:57;;;;;;;28.13;12.73;;;-3.50;79.90;;;;;;767409;184;26500;-76
2024/01/10 03:03:23;;;;;;;29.00;12.80;;;-3.50;79.90;;;;;;780673;184;26481;-76
2024/01/10 03:05:50;;;;;;;31.37;12.90;;;-3.50;80.10;;;;;;780431;184;26454;-75
2024/01/10 03:08:16;;;;;;;34.67;14.77;;;-3.60;79.50;;;;;;777304;184;26427;-76
2024/01/10 03:10:43;;;;;;;34.17;14.03;;;-3.60;80.70;;;;;;777383;184;27022;-76
2024/01/10 03:13:09;;;;;;;32.03;14.27;;;-3.60;80.60;;;;;;776716;184;27101;-76
2024/01/10 03:15:36;;;;;;;38.47;14.37;;;-3.60;81.10;;;;;;765919;184;26517;-76
2024/01/10 03:18:03;;;;;;;32.47;12.93;;;-3.60;82.00;;;;;;775268;184;26996;-76
2024/01/10 03:20:29;;;;;;;39.00;14.10;;;-3.70;82.10;;;;;;761648;187;27130;-76
2024/01/10 03:22:56;;;;;;;26.80;13.83;;;-3.60;79.20;;;;;;775913;185;26517;-76
2024/01/10 03:25:22;;;;;;;28.53;12.70;;;-3.60;79.30;;;;;;761583;188;26551;-76
2024/01/10 03:27:49;;;;;;;29.03;12.97;;;-3.60;79.40;;;;;;775797;185;26441;-72
2024/01/10 03:30:18;;;;;;;29.83;13.13;;;-3.60;79.80;;;;;;761508;188;26514;-76
2024/01/10 03:32:42;;;;;;;38.37;14.90;;;-3.60;80.80;;;;;;776290;183;26519;-76
2024/01/10 03:35:09;;;;;;;32.20;13.33;;;-3.60;80.70;;;;;;764142;187;26497;-76
2024/01/10 03:37:36;;;;;;;29.93;14.03;;;-3.60;80.60;;;;;;777661;184;26466;-76
2024/01/10 03:40:03;;;;;;;27.57;13.10;;;-3.70;81.20;;;;;;763003;188;26464;-77
2024/01/10 03:42:29;;;;;;;26.20;13.70;;;-3.70;80.80;;;;;;777130;183;26524;-76
2024/01/10 03:44:56;;;;;;;31.30;13.77;;;-3.70;80.80;;;;;;762441;188;27079;-76
2024/01/10 03:47:22;;;;;;;34.37;13.80;;;-3.70;81.40;;;;;;777958;184;26442;-76
2024/01/10 03:49:49;;;;;;;33.40;13.13;;;-3.70;82.30;;;;;;782900;180;26472;-77
2024/01/10 03:52:15;;;;;;;37.47;14.27;;;-3.70;83.50;;;;;;781262;184;27042;-76
2024/01/10 03:54:42;;;;;;;30.20;14.23;;;-3.80;83.70;;;;;;773723;183;26566;-72
2024/01/10 03:57:08;;;;;;;37.97;14.83;;;-3.80;84.70;;;;;;765836;184;26464;-76
2024/01/10 03:59:35;;;;;;;34.77;15.17;;;-3.80;85.30;;;;;;777073;184;26989;-76
2024/01/10 04:02:02;;;;;;;34.07;14.07;;;-3.80;85.60;;;;;;776931;185;26518;-75
2024/01/10 04:04:28;;;;;;;34.43;13.93;;;-3.80;86.00;;;;;;761991;188;27028;-75
2024/01/10 04:06:55;;;;;;;33.63;14.33;;;-3.80;86.40;;;;;;776324;184;26464;-76
2024/01/10 04:09:21;;;;;;;31.10;14.57;;;-3.80;86.70;;;;;;764790;187;26468;-76
2024/01/10 04:11:48;;;;;;;35.13;14.83;;;-3.80;87.10;;;;;;768813;183;27012;-75
2024/01/10 04:14:15;;;;;;;31.97;14.80;;;-3.80;86.40;;;;;;760852;189;26527;-72
2024/01/10 04:16:41;;;;;;;34.43;15.90;;;-3.80;86.10;;;;;;765863;183;27089;-76
2024/01/10 04:19:08;;;;;;;33.10;13.63;;;-3.70;87.20;;;;;;769153;183;26486;-76
2024/01/10 04:21:34;;;;;;;35.20;14.50;;;-3.80;87.60;;;;;;770010;183;26468;-76
2024/01/10 04:24:01;;;;;;;29.97;14.33;;;-3.70;87.60;;;;;;770283;184;26464;-74
2024/01/10 04:26:28;;;;;;;33.03;15.20;;;-3.70;88.20;;;;;;779781;183;26443;-76
2024/01/10 04:28:54;;;;;;;31.70;14.47;;;-3.80;88.20;;;;;;775727;184;27089;-75
2024/01/10 04:31:21;;;;;;;38.27;13.90;;;-3.80;88.20;;;;;;778022;184;26499;-76
2024/01/10 04:33:47;;;;;;;34.47;13.47;;;-3.80;88.80;;;;;;764134;184;26473;-77
2024/01/10 04:36:14;;;;;;;28.23;13.50;;;-3.70;89.70;;;;;;762330;188;26572;-76
2024/01/10 04:38:41;;;;;;;33.80;14.83;;;-3.80;89.90;;;;;;762516;188;26568;-77
2024/01/10 04:41:07;;;;;;;32.53;14.23;;;-3.80;90.10;;;;;;770137;184;27082;-77
2024/01/10 04:43:34;;;;;;;32.50;14.27;;;-3.80;90.20;;;;;;775371;184;26510;-76
2024/01/10 04:46:00;;;;;;;35.13;14.93;;;-3.80;90.20;;;;;;763799;186;26530;-77
2024/01/10 04:48:27;;;;;;;31.43;14.27;;;-3.70;90.20;;;;;;777958;181;26468;-76
2024/01/10 04:50:54;;;;;;;29.10;13.23;;;-3.70;90.40;;;;;;762968;188;26512;-72
2024/01/10 04:53:20;;;;;;;34.87;13.93;;;-3.70;90.70;;;;;;777269;183;28084;-76
2024/01/10 04:55:47;;;;;;;33.17;13.43;;;-3.70;90.90;;;;;;762409;188;26517;-74
2024/01/10 04:58:13;;;;;;;32.13;14.63;;;-3.70;91.10;;;;;;776846;185;26488;-76
2024/01/10 05:00:40;;;;;;;34.73;14.13;;;-3.70;91.40;;;;;;762441;188;27247;-76
2024/01/10 05:03:07;;;;;;;35.23;14.47;;;-3.70;91.40;;;;;;776693;185;26616;-76
2024/01/10 05:05:33;;;;;;;38.33;15.40;;;-3.70;91.50;;;;;;761957;188;27063;-76
2024/01/10 05:08:01;;;;;;;36.47;17.07;;;-3.70;91.60;;;;;;776238;185;27014;-76
2024/01/10 05:10:26;;;;;;;32.10;14.47;;;-3.70;91.70;;;;;;762211;187;26494;-76
2024/01/10 05:12:53;;;;;;;30.83;14.67;;;-3.70;91.90;;;;;;776439;185;27001;-76
2024/01/10 05:15:20;;;;;;;31.53;14.97;;;-3.70;91.70;;;;;;780109;184;26461;-76
2024/01/10 05:17:46;;;;;;;31.87;13.73;;;-3.70;91.50;;;;;;768895;183;26487;-67
2024/01/10 05:20:13;;;;;;;29.17;13.03;;;-3.70;91.40;;;;;;775193;184;26497;-70
2024/01/10 05:22:39;;;;;;;30.03;12.57;;;-3.70;91.30;;;;;;775415;184;26446;-70
2024/01/10 05:25:06;;;;;;;28.20;12.97;;;-3.70;91.20;;;;;;768802;185;27054;-76
2024/01/10 05:27:33;;;;;;;29.33;12.33;;;-3.60;90.90;;;;;;768198;185;26617;-76
2024/01/10 05:29:59;;;;;;;25.30;11.77;;;-3.60;90.40;;;;;;772505;184;27102;-76
2024/01/10 05:32:26;;;;;;;27.43;14.07;;;-3.60;89.70;;;;;;775944;185;26517;-77
2024/01/10 05:34:53;;;;;;;26.50;11.73;;;-3.60;89.10;;;;;;771166;183;26511;-76
2024/01/10 05:37:19;;;;;;;26.63;11.40;;;-3.60;88.40;;;;;;775956;184;26548;-76
2024/01/10 05:39:46;;;;;;;23.93;11.70;;;-3.60;88.40;;;;;;763267;187;26525;-76
2024/01/10 05:42:14;;;;;;;25.80;12.60;;;-3.60;88.70;;;;;;775945;185;26513;-77
2024/01/10 05:44:40;;;;;;;27.83;12.03;;;-3.60;88.90;;;;;;761736;188;27099;-72
2024/01/10 05:47:06;;;;;;;27.10;13.10;;;-3.60;89.00;;;;;;775997;185;26493;-76
2024/01/10 05:49:32;;;;;;;33.47;13.73;;;-3.60;88.80;;;;;;779845;184;27048;-76
2024/01/10 05:51:59;;;;;;;31.70;13.03;;;-3.60;89.00;;;;;;774195;184;26504;-77
2024/01/10 05:54:27;;;;;;;30.83;13.27;;;-3.60;88.70;;;;;;772903;185;26529;-77
2024/01/10 05:56:52;;;;;;;33.33;13.47;;;-3.60;88.50;;;;;;767977;183;27056;-77
2024/01/10 05:59:19;;;;;;;33.37;14.27;;;-3.60;88.50;;;;;;770932;183;26516;-77
2024/01/10 06:01:45;;;;;;;31.60;15.10;;;-3.60;88.90;;;;;;769469;183;26527;-77
2024/01/10 06:04:12;;;;;;;35.23;14.67;;;-3.60;89.70;;;;;;774979;184;26536;-77
2024/01/10 06:06:39;;;;;;;35.70;16.63;;;-3.60;90.10;;;;;;767895;183;26516;-76
2024/01/10 06:09:05;;;;;;;44.37;17.10;;;-3.60;90.30;;;;;;771748;183;27018;-77
2024/01/10 06:11:32;;;;;;;34.13;15.63;;;-3.50;90.70;;;;;;776568;183;26524;-76
2024/01/10 06:13:59;;;;;;;46.90;17.13;;;-3.60;90.80;;;;;;770638;184;26500;-76
2024/01/10 06:16:25;;;;;;;46.23;17.17;;;-3.60;91.00;;;;;;765405;184;26489;-76
2024/01/10 06:18:52;;;;;;;34.90;16.57;;;-3.60;91.10;;;;;;771470;184;26495;-72
2024/01/10 06:21:18;;;;;;;39.67;17.37;;;-3.60;91.20;;;;;;764986;186;27034;-77
2024/01/10 06:23:45;;;;;;;36.13;16.67;;;-3.60;91.50;;;;;;771395;186;26467;-77
2024/01/10 06:26:12;;;;;;;39.60;16.93;;;-3.60;91.70;;;;;;764978;184;26486;-76
2024/01/10 06:28:38;;;;;;;34.47;16.67;;;-3.60;91.80;;;;;;770756;184;26465;-76
2024/01/10 06:31:05;;;;;;;40.20;17.40;;;-3.60;92.00;;;;;;773265;184;26504;-77
2024/01/10 06:33:31;;;;;;;43.90;17.90;;;-3.60;92.10;;;;;;775816;184;27119;-75
2024/01/10 06:35:58;;;;;;;48.67;18.03;;;-3.60;92.20;;;;;;761424;188;26554;-76
2024/01/10 06:38:24;;;;;;;41.23;17.60;;;-3.50;92.30;;;;;;775823;182;26503;-76
2024/01/10 06:40:51;;;;;;;41.60;17.40;;;-3.50;92.50;;;;;;761583;187;26520;-77
2024/01/10 06:43:18;;;;;;;42.77;17.47;;;-3.50;92.70;;;;;;775870;185;26449;-76
2024/01/10 06:45:44;;;;;;;41.10;17.33;;;-3.50;92.70;;;;;;761614;188;27014;-74
2024/01/10 06:48:11;;;;;;;41.27;17.70;;;-3.50;92.60;;;;;;775912;182;26454;-75
2024/01/10 06:50:37;;;;;;;41.70;17.73;;;-3.50;92.60;;;;;;777778;184;27079;-76
2024/01/10 06:53:04;;;;;;;40.00;17.20;;;-3.50;92.70;;;;;;776476;185;26491;-75
2024/01/10 06:55:31;;;;;;;39.97;17.17;;;-3.50;92.80;;;;;;774306;183;27003;-76
2024/01/10 06:57:57;;;;;;;38.93;16.23;;;-3.50;92.70;;;;;;764552;184;26573;-76
2024/01/10 07:00:24;;;;;;;43.63;17.57;;;-3.50;92.80;;;;;;776449;185;26990;-77
2024/01/10 07:02:51;;;;;;;43.87;17.93;;;-3.50;92.70;;;;;;777677;184;26542;-76
2024/01/10 07:05:17;;;;;;;40.57;17.03;;;-3.50;92.70;;;;;;776497;184;26448;-75
2024/01/10 07:07:44;;;;;;;42.07;18.60;;;-3.50;92.60;;;;;;771331;182;26495;-75
2024/01/10 07:10:11;;;;;;;40.43;18.70;;;-3.50;92.60;;;;;;775346;183;26495;-77
2024/01/10 07:12:37;;;;;;;45.57;19.20;;;-3.40;92.70;;;;;;776294;185;26482;-76
2024/01/10 07:15:04;;;;;;;38.60;17.73;;;-3.40;92.80;;;;;;766018;187;27120;-77
2024/01/10 07:17:31;;;;;;;42.17;18.50;;;-3.40;92.80;;;;;;772102;183;26507;-77
2024/01/10 07:19:57;;;;;;;41.23;18.07;;;-3.40;93.10;;;;;;766783;186;26556;-78
2024/01/10 07:22:24;;;;;;;54.10;18.87;;;-3.40;93.30;;;;;;766746;187;26546;-74
2024/01/10 07:24:50;;;;;;;38.93;18.43;;;-3.40;93.20;;;;;;768540;183;26484;-75
2024/01/10 07:27:18;;;;;;;44.50;18.20;;;-3.40;93.00;;;;;;774057;184;27073;-78
2024/01/10 07:29:44;;;;;;;44.47;17.40;;;-3.40;92.90;;;;;;777116;185;26469;-76
2024/01/10 07:32:11;;;;;;;38.30;18.37;;;-3.40;92.50;;;;;;777069;185;26507;-76
2024/01/10 07:34:38;;;;;;;48.13;18.53;;;-3.40;92.30;;;;;;777130;185;26508;-77
2024/01/10 07:37:05;;;;;;;40.47;19.23;;;-3.30;92.20;;;;;;771990;183;26530;-77
2024/01/10 07:39:31;;;;;;;40.97;17.93;;;-3.30;92.50;;;;;;774693;184;26555;-76
2024/01/10 07:41:58;;;;;;;37.47;16.37;;;-3.30;92.60;;;;;;777004;185;26466;-76
2024/01/10 07:44:26;;;;;;;44.47;19.23;;;-3.40;92.70;;;;;;761841;188;27030;-76
2024/01/10 07:46:53;;;;;;;39.70;17.23;;;-3.40;92.70;;;;;;776291;185;26448;-76
2024/01/10 07:49:18;;;;;;;40.93;16.93;;;-3.40;92.80;;;;;;762055;187;27067;-77
2024/01/10 07:51:44;;;;;;;38.33;17.23;;;-3.30;92.10;;;;;;776152;184;26512;-77
2024/01/10 07:54:11;;;;;;;44.83;16.80;;;-3.20;92.00;;;;;;778919;184;26449;-76
2024/01/10 07:56:38;;;;;;;39.77;15.77;;;-3.20;92.00;;;;;;776356;184;26456;-74
2024/01/10 07:59:04;;;;;;;40.93;15.70;;;-3.20;91.80;;;;;;767146;184;27033;-76
2024/01/10 08:01:31;;;;;;;31.37;13.90;;;-3.10;91.30;;;;;;771735;184;26578;-77
2024/01/10 08:03:57;;;;;;;35.30;14.53;;;-3.10;90.80;;;;;;776331;185;26537;-78
2024/01/10 08:06:24;;;;;;;30.17;12.53;;;-3.10;90.30;;;;;;761668;188;26550;-77
2024/01/10 08:08:51;;;;;;;29.07;12.03;;;-3.10;90.10;;;;;;776145;185;27046;-77
2024/01/10 08:11:17;;;;;;;31.13;12.90;;;-3.10;88.40;;;;;;761788;188;26519;-75
2024/01/10 08:13:44;;;;;;;33.27;11.83;;;-3.10;86.00;;;;;;776503;184;26537;-77
2024/01/10 08:16:10;;;;;;;43.03;13.33;;;-3.10;83.90;;;;;;782114;183;26537;-78
2024/01/10 08:18:37;;;;;;;32.17;14.13;;;-3.10;84.40;;;;;;780982;184;26446;-78
2024/01/10 08:21:04;;;;;;;35.00;14.00;;;-3.10;85.40;;;;;;784882;181;27001;-78
2024/01/10 08:23:31;;;;;;;54.80;15.87;;;-3.00;86.40;;;;;;780912;183;26511;-77
2024/01/10 08:25:57;;;;;;;34.57;15.90;;;-3.00;86.80;;;;;;763404;187;26507;-78
2024/01/10 08:28:26;;;;;;;55.77;17.80;;;-3.00;87.50;;;;;;772300;184;26507;-78
2024/01/10 08:30:50;;;;;;;51.60;17.70;;;-3.00;88.50;;;;;;777322;183;27073;-76
2024/01/10 08:33:17;;;;;;;41.50;16.93;;;-2.90;89.70;;;;;;778776;181;26473;-76
2024/01/10 08:35:43;;;;;;;43.07;17.50;;;-2.90;90.10;;;;;;777222;181;26517;-75
2024/01/10 08:38:10;;;;;;;39.60;17.83;;;-2.90;90.50;;;;;;762378;188;26509;-77
2024/01/10 08:40:37;;;;;;;35.73;14.97;;;-2.80;90.80;;;;;;776336;184;26460;-75
2024/01/10 08:43:03;;;;;;;35.23;15.03;;;-2.80;90.80;;;;;;762117;187;27017;-77
2024/01/10 08:45:30;;;;;;;36.77;16.07;;;-2.80;90.00;;;;;;776452;185;26475;-76
2024/01/10 08:47:57;;;;;;;32.93;14.10;;;-2.80;89.10;;;;;;771506;183;26534;-76
2024/01/10 08:50:23;;;;;;;34.60;15.20;;;-2.80;89.30;;;;;;764350;182;27076;-77
2024/01/10 08:52:50;;;;;;;33.50;14.30;;;-2.80;89.30;;;;;;761322;188;26499;-77
2024/01/10 08:55:16;;;;;;;40.60;17.57;;;-2.80;88.80;;;;;;770388;184;26501;-77
2024/01/10 08:57:43;;;;;;;36.33;14.83;;;-2.70;87.50;;;;;;763671;183;28062;-77
2024/01/10 09:00:11;;;;;;;38.50;14.67;;;-2.70;86.00;;;;;;772640;183;26488;-77
2024/01/10 09:02:37;;;;;;;39.53;15.63;;;-2.70;84.30;;;;;;766758;184;27026;-78
2024/01/10 09:05:04;;;;;;;35.53;13.90;;;-2.70;84.50;;;;;;764410;183;26475;-77
2024/01/10 09:07:30;;;;;;;29.87;13.40;;;-2.70;83.10;;;;;;771219;183;26476;-79
2024/01/10 09:09:57;;;;;;;32.97;14.03;;;-2.60;82.40;;;;;;778290;184;26455;-78
2024/01/10 09:12:23;;;;;;;40.83;16.43;;;-2.60;82.20;;;;;;779376;184;26520;-79
2024/01/10 09:14:50;;;;;;;44.07;15.13;;;-2.50;79.80;;;;;;770961;184;27131;-78
2024/01/10 09:17:17;;;;;;;35.37;14.37;;;-2.50;73.60;;;;;;768937;184;26436;-79
2024/01/10 09:19:43;;;;;;;40.67;16.20;;;-2.60;71.10;;;;;;775436;184;26543;-79
2024/01/10 09:22:10;;;;;;;42.57;17.17;;;-2.60;72.30;;;;;;767782;184;27019;-77
2024/01/10 09:24:36;;;;;;;37.87;17.00;;;-2.50;73.30;;;;;;772539;184;26449;-78
2024/01/10 09:27:03;;;;;;;39.07;17.10;;;-2.50;72.90;;;;;;766485;183;27011;-79
2024/01/10 09:29:31;;;;;;;34.57;14.43;;;-2.50;70.00;;;;;;764407;184;26509;-78
2024/01/10 09:31:56;;;;;;;47.33;16.97;;;-2.50;69.80;;;;;;772753;182;26578;-77
2024/01/10 09:34:23;;;;;;;45.57;15.40;;;-2.40;72.50;;;;;;771459;184;26531;-79
2024/01/10 09:36:49;;;;;;;41.93;16.10;;;-2.40;73.00;;;;;;775746;183;26503;-78
2024/01/10 09:39:16;;;;;;;41.57;16.20;;;-2.40;70.20;;;;;;763330;188;27113;-80
2024/01/10 09:41:44;;;;;;;38.83;15.43;;;-2.40;70.10;;;;;;777353;184;26468;-79
2024/01/10 09:44:11;;;;;;;41.80;15.00;;;-2.30;70.80;;;;;;781273;183;26438;-77
2024/01/10 09:46:37;;;;;;;39.63;16.30;;;-2.30;73.30;;;;;;768604;183;28069;-79
2024/01/10 09:49:04;;;;;;;38.80;14.83;;;-2.30;75.10;;;;;;756725;187;26485;-79
2024/01/10 09:51:30;;;;;;;44.43;16.10;;;-2.20;76.30;;;;;;775656;185;26512;-77
2024/01/10 09:53:57;;;;;;;41.60;16.00;;;-2.20;74.80;;;;;;778761;183;26592;-78
2024/01/10 09:56:24;;;;;;;43.77;17.17;;;-2.10;75.20;;;;;;778020;185;26994;-77
2024/01/10 09:58:51;;;;;;;38.80;16.97;;;-2.10;76.00;;;;;;777366;183;26479;-79
2024/01/10 10:01:17;;;;;;;44.33;16.40;;;-2.00;75.50;;;;;;765078;185;26494;-78
2024/01/10 10:03:43;;;;;;;40.83;16.60;;;-2.00;75.60;;;;;;764412;187;26493;-77
2024/01/10 10:06:10;;;;;;;42.33;17.07;;;-2.00;75.30;;;;;;781055;184;26479;-77
2024/01/10 10:08:38;;;;;;;45.83;17.00;;;-2.00;75.40;;;;;;781753;183;27017;-78
2024/01/10 10:11:03;;;;;;;40.40;17.50;;;-2.00;76.00;;;;;;780018;184;26531;-78
2024/01/10 10:13:30;;;;;;;46.00;17.60;;;-1.90;75.50;;;;;;773141;184;27083;-77
2024/01/10 10:15:59;;;;;;;39.57;15.93;;;-2.00;74.60;;;;;;776825;184;26510;-78
2024/01/10 10:18:25;;;;;;;49.57;17.33;;;-2.00;74.70;;;;;;766051;187;26531;-77
2024/01/10 10:20:51;;;;;;;39.83;16.30;;;-2.00;73.80;;;;;;766372;187;27132;-77
2024/01/10 10:23:18;;;;;;;38.83;15.57;;;-1.90;73.50;;;;;;769718;185;27034;-78
2024/01/10 10:25:45;;;;;;;42.67;17.63;;;-1.90;72.00;;;;;;777233;184;26555;-78
2024/01/10 10:28:11;;;;;;;44.70;17.63;;;-1.80;72.10;;;;;;761330;187;26547;-77
2024/01/10 10:30:39;;;;;;;46.90;17.40;;;-1.70;71.90;;;;;;774487;184;26444;-77
2024/01/10 10:33:08;;;;;;;40.00;17.23;;;-1.50;70.10;;;;;;776765;184;26503;-78
2024/01/10 10:35:35;;;;;;;44.30;18.20;;;-1.40;70.20;;;;;;779404;184;26438;-77
2024/01/10 10:38:03;;;;;;;45.43;18.57;;;-1.20;68.90;;;;;;763363;184;26472;-78
2024/01/10 10:40:29;;;;;;;44.07;18.90;;;-1.00;69.50;;;;;;760827;187;27048;-78
2024/01/10 10:42:56;;;;;;;61.17;21.93;;;-1.00;69.10;;;;;;771180;183;26475;-77
2024/01/10 10:45:26;;;;;;;38.87;17.87;;;-0.90;67.30;;;;;;768581;185;26479;-78
2024/01/10 10:47:57;;;;;;;42.50;18.20;;;-0.90;67.60;;;;;;765122;187;26479;-79
2024/01/10 10:50:24;;;;;;;44.70;19.30;;;-0.90;68.50;;;;;;779055;183;26436;-79
2024/01/10 10:52:51;;;;;;;41.03;18.50;;;-0.80;68.40;;;;;;760793;185;26493;-75
2024/01/10 10:55:17;;;;;;;45.37;18.93;;;-0.80;68.00;;;;;;765097;184;26503;-78
2024/01/10 10:57:45;;;;;;;48.47;18.83;;;-0.80;68.10;;;;;;782868;180;26450;-78
2024/01/10 11:00:15;;;;;;;46.90;18.63;;;-0.80;67.10;;;;;;779498;183;26541;-79
2024/01/10 11:02:39;;;;;;;51.73;19.60;;;-0.70;68.40;;;;;;768416;184;26498;-76
2024/01/10 11:05:05;;;;;;;47.57;18.60;;;-0.60;68.80;;;;;;764155;188;28099;-79
2024/01/10 11:07:32;;;;;;;50.70;19.73;;;-0.20;70.80;;;;;;778550;184;26456;-78
2024/01/10 11:10:00;;;;;;;58.47;19.93;;;0.20;68.60;;;;;;766395;183;26493;-77
2024/01/10 11:12:28;;;;;;;49.17;19.50;;;0.60;66.50;;;;;;763586;188;26525;-78
2024/01/10 11:15:13;;;;;;;48.20;19.77;;;0.80;64.10;;;;;;762970;187;26534;-77
2024/01/10 11:18:11;;;;;;;62.10;21.87;;;1.00;62.60;;;;;;777623;184;26458;-79
2024/01/10 11:20:45;;;;;;;43.93;18.27;;;1.20;61.40;;;;;;775573;184;26479;-81
2024/01/10 11:23:31;;;;;;;50.90;19.40;;;1.30;61.40;;;;;;773407;183;26541;-78
2024/01/10 11:25:57;;;;;;;45.60;18.40;;;1.40;61.60;;;;;;776215;184;26496;-77
2024/01/10 11:28:24;;;;;;;50.20;20.23;;;1.40;60.90;;;;;;779250;184;26470;-78
2024/01/10 11:30:51;;;;;;;47.30;19.37;;;1.40;59.90;;;;;;779293;184;26602;-79
2024/01/10 11:33:23;;;;;;;51.17;19.67;;;1.40;59.90;;;;;;772762;180;26486;-79
2024/01/10 11:36:09;;;;;;;56.03;21.03;;;1.20;59.50;;;;;;771202;184;26498;-75
2024/01/10 11:38:33;;;;;;;44.30;20.17;;;1.10;59.90;;;;;;767124;184;27086;-78
2024/01/10 11:40:59;;;;;;;47.40;20.57;;;1.00;61.80;;;;;;768961;184;26515;-78
2024/01/10 11:43:26;;;;;;;57.23;21.50;;;1.00;62.30;;;;;;772242;184;26499;-77
2024/01/10 11:45:55;;;;;;;48.87;20.47;;;1.00;62.00;;;;;;778904;184;26526;-75
2024/01/10 11:48:27;;;;;;;47.73;20.10;;;1.00;62.60;;;;;;763219;188;26518;-79
2024/01/10 11:50:52;;;;;;;49.23;21.93;;;1.00;61.20;;;;;;766719;185;26521;-79
2024/01/10 11:53:31;;;;;;;50.27;20.97;;;1.10;61.30;;;;;;756161;188;26556;-78
2024/01/10 11:55:57;;;;;;;54.07;21.60;;;1.10;61.40;;;;;;776370;183;26510;-77
2024/01/10 11:58:24;;;;;;;54.30;20.87;;;1.10;61.30;;;;;;760345;187;26519;-80
2024/01/10 12:00:51;;;;;;;49.73;21.07;;;1.20;63.00;;;;;;772790;183;26484;-78
2024/01/10 12:03:18;;;;;;;56.97;20.57;;;1.20;62.50;;;;;;778283;183;26493;-78
2024/01/10 12:05:44;;;;;;;47.50;20.43;;;1.20;61.70;;;;;;751490;188;27059;-77
2024/01/10 12:08:10;;;;;;;55.80;21.87;;;1.30;62.00;;;;;;749438;191;26514;-79
2024/01/10 12:10:38;;;;;;;49.03;20.20;;;1.40;59.80;;;;;;767487;183;28148;-78
2024/01/10 12:13:04;;;;;;;49.73;21.03;;;1.70;60.10;;;;;;753080;187;26517;-78
2024/01/10 12:15:31;;;;;;;52.50;22.63;;;2.00;59.80;;;;;;773400;184;26459;-78
2024/01/10 12:17:58;;;;;;;51.37;20.67;;;2.20;60.10;;;;;;777377;185;27025;-78
2024/01/10 12:20:24;;;;;;;46.63;21.13;;;2.50;58.80;;;;;;772693;185;26462;-75
2024/01/10 12:22:51;;;;;;;50.73;21.00;;;3.00;57.80;;;;;;763490;183;28128;-78
2024/01/10 12:25:19;;;;;;;44.33;20.20;;;3.30;56.70;;;;;;774890;184;26525;-78
2024/01/10 12:27:44;;;;;;;42.70;21.03;;;3.50;56.50;;;;;;762474;187;27058;-77